createdAt,value
2018-12-27T00:01:43.757Z,17.00
2018-12-27T00:04:15.022Z,18.20
2018-12-27T00:06:46.295Z,16.83
2018-12-27T00:09:17.067Z,15.17
2018-12-27T00:11:47.845Z,19.03
2018-12-27T00:14:18.787Z,18.87
2018-12-27T00:17:09.766Z,19.70
2018-12-27T00:19:41.142Z,14.67
2018-12-27T00:22:11.792Z,13.77
2018-12-27T00:24:43.021Z,11.80
2018-12-27T00:27:14.148Z,12.33
2018-12-27T00:29:44.998Z,10.73
2018-12-27T00:32:15.728Z,10.33
2018-12-27T00:34:46.927Z,10.27
2018-12-27T00:37:18.149Z,15.80
2018-12-27T00:39:49.180Z,16.70
2018-12-27T00:42:20.355Z,19.40
2018-12-27T00:44:51.187Z,24.87
2018-12-27T00:47:21.979Z,21.00
2018-12-27T00:49:53.028Z,22.37
2018-12-27T00:52:24.383Z,21.77
2018-12-27T00:54:55.207Z,18.07
2018-12-27T00:57:25.938Z,14.50
2018-12-27T00:59:57.029Z,16.77
2018-12-27T01:02:28.157Z,13.33
2018-12-27T01:04:59.036Z,12.83
2018-12-27T01:07:29.679Z,11.57
2018-12-27T01:10:00.867Z,13.00
2018-12-27T01:12:32.110Z,11.13
2018-12-27T01:15:03.208Z,9.00
2018-12-27T01:17:34.025Z,9.87
2018-12-27T01:20:05.578Z,11.23
2018-12-27T01:22:36.657Z,8.47
2018-12-27T01:25:07.389Z,10.37
2018-12-27T01:27:38.251Z,8.83
2018-12-27T01:30:09.046Z,10.27
2018-12-27T01:32:39.781Z,9.20
2018-12-27T01:35:10.836Z,7.47
2018-12-27T01:37:42.111Z,8.77
2018-12-27T01:40:12.918Z,8.53
2018-12-27T01:42:43.673Z,8.63
2018-12-27T01:45:14.700Z,8.40
2018-12-27T01:47:46.071Z,8.60
2018-12-27T01:50:16.576Z,9.20
2018-12-27T01:52:47.256Z,8.83
2018-12-27T01:55:18.273Z,7.70
2018-12-27T01:57:49.708Z,8.50
2018-12-27T02:00:20.667Z,8.20
2018-12-27T02:02:51.477Z,8.90
2018-12-27T02:05:22.269Z,8.80
2018-12-27T02:07:53.088Z,9.57
2018-12-27T02:10:23.988Z,9.30
2018-12-27T02:12:55.110Z,9.20
2018-12-27T02:15:25.828Z,10.77
2018-12-27T02:17:56.459Z,11.77
2018-12-27T02:20:27.852Z,11.60
2018-12-27T02:22:59.001Z,11.00
2018-12-27T02:25:30.168Z,10.70
2018-12-27T02:28:00.942Z,10.10
2018-12-27T02:30:31.686Z,9.20
2018-12-27T02:33:03.156Z,9.23
2018-12-27T02:35:34.050Z,11.10
2018-12-27T02:38:04.588Z,9.67
2018-12-27T02:40:35.371Z,12.03
2018-12-27T02:43:06.284Z,10.03
2018-12-27T02:45:37.453Z,10.73
2018-12-27T02:48:08.685Z,10.47
2018-12-27T02:50:39.415Z,7.87
2018-12-27T02:53:10.007Z,10.70
2018-12-27T02:55:41.292Z,10.13
2018-12-27T02:58:12.701Z,8.93
2018-12-27T03:00:43.477Z,13.43
2018-12-27T03:03:15.265Z,11.00
2018-12-27T03:05:46.284Z,12.43
2018-12-27T03:08:17.392Z,12.60
2018-12-27T03:10:48.322Z,13.00
2018-12-27T03:13:19.060Z,11.83
2018-12-27T03:15:50.251Z,11.67
2018-12-27T03:18:21.470Z,11.53
2018-12-27T03:20:52.525Z,7.97
2018-12-27T03:23:24.037Z,10.40
2018-12-27T03:25:54.906Z,11.40
2018-12-27T03:28:25.604Z,8.40
2018-12-27T03:30:56.883Z,9.83
2018-12-27T03:33:28.112Z,9.37
2018-12-27T03:35:59.026Z,8.47
2018-12-27T03:38:29.452Z,9.00
2018-12-27T03:41:00.648Z,9.30
2018-12-27T03:43:31.872Z,9.03
2018-12-27T03:46:02.602Z,8.97
2018-12-27T03:48:33.311Z,10.40
2018-12-27T03:51:04.269Z,10.13
2018-12-27T03:53:35.194Z,7.40
2018-12-27T03:56:06.111Z,8.53
2018-12-27T03:58:36.556Z,8.47
2018-12-27T04:01:07.621Z,9.20
2018-12-27T04:03:39.047Z,9.97
2018-12-27T04:06:09.865Z,11.90
2018-12-27T04:08:40.414Z,14.90
2018-12-27T04:11:11.487Z,14.00
2018-12-27T04:13:42.605Z,16.77
2018-12-27T04:16:13.419Z,17.47
2018-12-27T04:18:44.034Z,16.07
2018-12-27T04:21:15.166Z,12.80
2018-12-27T04:23:47.000Z,14.70
2018-12-27T04:26:18.655Z,14.20
2018-12-27T04:28:49.302Z,14.30
2018-12-27T04:31:20.896Z,17.67
2018-12-27T04:33:52.414Z,15.03
2018-12-27T04:36:23.691Z,14.20
2018-12-27T04:38:54.284Z,32.70
2018-12-27T04:41:25.253Z,23.03
2018-12-27T04:43:56.552Z,24.97
2018-12-27T04:46:27.537Z,12.87
2018-12-27T04:48:58.881Z,20.43
2018-12-27T04:51:29.572Z,14.60
2018-12-27T04:53:59.907Z,15.70
2018-12-27T04:56:30.867Z,15.20
2018-12-27T04:59:01.890Z,15.00
2018-12-27T05:01:33.141Z,15.00
2018-12-27T05:04:03.654Z,15.10
2018-12-27T05:06:34.527Z,14.27
2018-12-27T05:09:07.575Z,15.07
2018-12-27T05:11:38.783Z,19.23
2018-12-27T05:14:09.460Z,21.80
2018-12-27T05:16:40.552Z,20.93
2018-12-27T05:19:11.683Z,20.83
2018-12-27T05:21:42.542Z,20.50
2018-12-27T05:24:13.339Z,15.40
2018-12-27T05:26:44.160Z,16.50
2018-12-27T05:29:14.662Z,16.43
2018-12-27T05:31:45.542Z,16.30
2018-12-27T05:34:16.487Z,14.87
2018-12-27T05:36:47.324Z,27.80
2018-12-27T05:39:18.041Z,37.90
2018-12-27T05:41:49.103Z,33.37
2018-12-27T05:44:20.228Z,29.77
2018-12-27T05:46:51.094Z,24.93
2018-12-27T05:49:21.770Z,23.17
2018-12-27T05:51:52.410Z,19.93
2018-12-27T05:54:23.353Z,29.47
2018-12-27T05:56:54.119Z,33.43
2018-12-27T05:59:24.610Z,23.87
2018-12-27T06:01:55.368Z,33.20
2018-12-27T06:04:33.560Z,24.23
2018-12-27T06:06:59.089Z,30.00
2018-12-27T06:09:30.335Z,25.17
2018-12-27T06:12:01.342Z,28.50
2018-12-27T06:14:31.855Z,29.30
2018-12-27T06:17:02.957Z,36.77
2018-12-27T06:19:34.077Z,32.37
2018-12-27T06:22:05.497Z,28.50
2018-12-27T06:24:36.138Z,33.70
2018-12-27T06:27:06.888Z,30.80
2018-12-27T06:29:37.983Z,33.43
2018-12-27T06:32:08.684Z,34.53
2018-12-27T06:34:59.141Z,36.20
2018-12-27T06:37:30.595Z,39.43
2018-12-27T06:40:01.640Z,45.07
2018-12-27T06:42:32.791Z,48.30
2018-12-27T06:45:03.539Z,47.73
2018-12-27T06:47:34.127Z,48.17
2018-12-27T06:50:06.732Z,39.10
2018-12-27T06:52:37.400Z,43.93
2018-12-27T06:55:08.496Z,49.37
2018-12-27T06:57:39.471Z,52.87
2018-12-27T07:00:10.262Z,46.83
2018-12-27T07:03:00.971Z,50.20
2018-12-27T07:05:31.582Z,50.37
2018-12-27T07:08:02.655Z,55.90
2018-12-27T07:10:33.264Z,55.67
2018-12-27T07:13:04.345Z,58.10
2018-12-27T07:15:35.668Z,52.57
2018-12-27T07:18:08.064Z,57.10
2018-12-27T07:20:38.658Z,74.30
2018-12-27T07:23:09.634Z,80.50
2018-12-27T07:25:40.621Z,48.13
2018-12-27T07:28:12.715Z,31.17
2018-12-27T07:30:43.969Z,27.70
2018-12-27T07:33:15.073Z,33.37
2018-12-27T07:35:45.606Z,30.30
2018-12-27T07:38:19.642Z,30.40
2018-12-27T07:40:50.570Z,34.10
2018-12-27T07:43:21.394Z,30.53
2018-12-27T07:45:51.570Z,30.13
2018-12-27T07:48:21.903Z,33.83
2018-12-27T07:50:52.381Z,33.17
2018-12-27T07:53:23.296Z,25.57
2018-12-27T07:55:53.439Z,20.60
2018-12-27T07:58:23.644Z,21.00
2018-12-27T08:00:53.888Z,16.07
2018-12-27T08:03:24.098Z,15.47
2018-12-27T08:05:54.468Z,17.13
2018-12-27T08:08:24.677Z,17.23
2018-12-27T08:10:54.931Z,15.37
2018-12-27T08:13:25.181Z,18.83
2018-12-27T08:15:55.461Z,20.90
2018-12-27T08:18:26.957Z,22.30
2018-12-27T08:20:57.697Z,20.63
2018-12-27T08:23:28.748Z,27.93
2018-12-27T08:26:00.207Z,48.13
2018-12-27T08:28:30.770Z,35.00
2018-12-27T08:31:01.328Z,19.63
2018-12-27T08:33:32.209Z,18.10
2018-12-27T08:36:03.149Z,22.37
2018-12-27T08:38:33.645Z,23.10
2018-12-27T08:41:04.367Z,26.83
2018-12-27T08:43:35.226Z,23.10
2018-12-27T08:46:05.829Z,25.63
2018-12-27T08:48:37.123Z,40.67
2018-12-27T08:51:08.215Z,36.37
2018-12-27T08:53:38.768Z,22.73
2018-12-27T09:02:10.301Z,24.37
2018-12-27T09:11:12.119Z,25.63
2018-12-27T09:14:14.651Z,25.93
2018-12-27T09:22:35.361Z,22.77
2018-12-27T09:25:25.003Z,19.00
2018-12-27T09:28:24.952Z,21.10
2018-12-27T09:39:50.595Z,13.13
2018-12-27T09:42:20.957Z,15.77
2018-12-27T09:44:51.111Z,17.60
2018-12-27T09:47:21.323Z,17.77
2018-12-27T09:49:51.594Z,22.30
2018-12-27T09:52:21.848Z,22.87
2018-12-27T09:54:52.052Z,16.50
2018-12-27T09:57:22.272Z,17.97
2018-12-27T09:59:52.554Z,12.53
2018-12-27T10:02:22.762Z,13.57
2018-12-27T10:04:53.051Z,14.90
2018-12-27T10:07:43.825Z,13.17
2018-12-27T10:31:28.746Z,16.77
2018-12-27T10:36:47.611Z,13.17
2018-12-27T10:39:17.798Z,11.57
2018-12-27T10:41:48.070Z,11.77
2018-12-27T10:44:57.165Z,13.13
2018-12-27T10:47:42.302Z,13.60
2018-12-27T10:50:51.568Z,11.43
2018-12-27T10:53:40.976Z,10.20
2018-12-27T10:56:25.356Z,11.33
2018-12-27T11:10:09.296Z,8.90
2018-12-27T11:12:39.701Z,9.70
2018-12-27T11:15:10.048Z,8.53
2018-12-27T11:17:40.308Z,8.80
2018-12-27T11:20:10.482Z,7.90
2018-12-27T11:22:59.616Z,9.10
2018-12-27T11:25:29.899Z,8.63
2018-12-27T11:28:20.317Z,7.40
2018-12-27T11:34:17.701Z,6.80
2018-12-27T11:43:13.503Z,13.93
2018-12-27T11:48:37.430Z,16.17
2018-12-27T11:51:08.759Z,12.00
2018-12-27T11:53:39.710Z,14.80
2018-12-27T11:56:10.071Z,11.50
2018-12-27T11:58:40.236Z,9.90
2018-12-27T12:01:10.427Z,9.33
2018-12-27T12:03:40.711Z,6.90
2018-12-27T12:06:29.799Z,7.80
2018-12-27T12:09:00.184Z,8.30
2018-12-27T12:11:30.425Z,6.07
2018-12-27T12:14:00.686Z,6.17
2018-12-27T12:16:30.961Z,12.83
2018-12-27T12:19:01.150Z,7.27
2018-12-27T12:21:31.339Z,16.47
2018-12-27T12:24:01.618Z,11.37
2018-12-27T12:26:31.888Z,16.03
2018-12-27T12:29:02.088Z,10.20
2018-12-27T12:31:32.343Z,7.77
2018-12-27T12:34:02.621Z,8.37
2018-12-27T12:36:32.804Z,9.70
2018-12-27T12:39:04.162Z,16.83
2018-12-27T12:41:34.447Z,22.10
2018-12-27T12:44:04.638Z,10.77
2018-12-27T12:46:34.883Z,10.30
2018-12-27T12:49:05.194Z,10.03
2018-12-27T12:51:35.518Z,9.63
2018-12-27T12:54:05.730Z,9.20
2018-12-27T12:56:35.898Z,9.30
2018-12-27T12:59:06.209Z,9.60
2018-12-27T13:01:36.504Z,10.50
2018-12-27T13:04:06.716Z,13.93
2018-12-27T13:06:36.902Z,11.90
2018-12-27T13:12:08.005Z,21.13
2018-12-27T13:17:32.494Z,15.03
2018-12-27T13:20:02.947Z,10.70
2018-12-27T13:22:33.341Z,15.60
2018-12-27T13:25:03.537Z,24.23
2018-12-27T13:27:33.725Z,23.23
2018-12-27T13:30:03.997Z,17.60
2018-12-27T13:32:34.234Z,12.90
2018-12-27T13:35:04.428Z,21.03
2018-12-27T13:37:34.601Z,18.03
2018-12-27T13:43:04.265Z,22.03
2018-12-27T13:45:34.541Z,26.00
2018-12-27T13:48:04.807Z,38.57
2018-12-27T13:50:35.070Z,37.90
2018-12-27T13:53:05.422Z,51.17
2018-12-27T14:01:55.598Z,44.77
2018-12-27T14:07:22.602Z,48.90
2018-12-27T14:09:52.969Z,56.60
2018-12-27T14:12:23.260Z,46.17
2018-12-27T14:14:53.436Z,36.50
2018-12-27T14:17:23.605Z,44.40
2018-12-27T14:19:53.897Z,47.23
2018-12-27T14:22:24.148Z,41.67
2018-12-27T14:24:57.894Z,42.90
2018-12-27T14:27:26.324Z,43.80
2018-12-27T14:29:56.626Z,43.87
2018-12-27T14:32:26.935Z,44.90
2018-12-27T14:34:57.086Z,49.47
2018-12-27T14:37:27.251Z,55.33
2018-12-27T14:39:57.496Z,58.27
2018-12-27T14:42:27.656Z,62.33
2018-12-27T14:44:57.904Z,75.83
2018-12-27T14:47:28.170Z,56.70
2018-12-27T14:49:58.346Z,57.00
2018-12-27T14:52:28.543Z,62.63
2018-12-27T14:54:58.810Z,69.00
2018-12-27T14:57:29.055Z,64.37
2018-12-27T14:59:59.258Z,78.20
2018-12-27T15:02:29.738Z,58.73
2018-12-27T15:05:39.214Z,56.93
2018-12-27T15:08:28.550Z,96.50
2018-12-27T15:23:34.318Z,35.57
2018-12-27T15:26:29.634Z,37.00
2018-12-27T15:32:12.119Z,55.00
2018-12-27T15:34:42.274Z,76.10
2018-12-27T15:37:12.766Z,67.10
2018-12-27T15:40:03.161Z,59.30
2018-12-27T16:09:00.796Z,75.33
2018-12-27T16:11:47.895Z,61.17
2018-12-27T16:20:09.908Z,42.93
2018-12-27T16:22:56.741Z,39.83
2018-12-27T16:28:46.843Z,38.60
2018-12-27T16:31:37.323Z,39.87
2018-12-27T16:45:58.415Z,36.23
2018-12-27T16:51:46.401Z,37.63
2018-12-27T16:57:30.100Z,37.40
2018-12-27T17:06:01.687Z,49.03
2018-12-27T17:11:36.479Z,43.93
2018-12-27T17:23:21.627Z,42.23
2018-12-27T17:34:57.571Z,39.07
2018-12-27T17:40:46.039Z,33.87
2018-12-27T18:34:19.204Z,38.60
2018-12-27T18:37:07.570Z,28.80
2018-12-27T18:39:52.021Z,36.63
2018-12-27T19:09:19.455Z,27.93
2018-12-27T19:12:12.723Z,30.20
2018-12-27T19:14:45.266Z,32.67
2018-12-27T19:23:34.477Z,43.77
2018-12-27T19:26:29.599Z,43.40
2018-12-27T19:41:02.030Z,29.77
2018-12-27T19:53:10.838Z,25.40
2018-12-27T20:11:09.393Z,30.20
2018-12-27T20:26:24.847Z,38.73
2018-12-27T20:38:16.390Z,26.03
2018-12-27T20:41:11.531Z,22.90
2018-12-27T20:49:59.999Z,20.07
2018-12-27T20:56:03.401Z,17.13
2018-12-27T21:01:38.007Z,24.20
2018-12-27T21:04:22.269Z,19.50
2018-12-27T21:15:59.326Z,21.27
2018-12-27T21:18:30.162Z,20.80
2018-12-27T21:21:01.047Z,23.37
2018-12-27T21:23:31.714Z,20.30
2018-12-27T21:26:02.151Z,22.53
2018-12-27T21:31:28.301Z,20.87
2018-12-27T21:33:59.594Z,22.90
2018-12-27T21:36:30.085Z,30.70
2018-12-27T21:39:01.447Z,65.27
2018-12-27T21:41:32.074Z,42.10
2018-12-27T21:44:02.597Z,40.80
2018-12-27T21:46:53.292Z,36.10
2018-12-27T21:49:24.419Z,35.60
2018-12-27T21:51:55.058Z,38.17
2018-12-27T21:54:25.588Z,27.90
2018-12-27T21:56:56.799Z,24.43
2018-12-27T21:59:27.800Z,19.00
2018-12-27T22:01:58.591Z,22.30
2018-12-27T22:04:29.045Z,19.60
2018-12-27T22:07:00.428Z,19.63
2018-12-27T22:09:31.400Z,19.40
2018-12-27T22:12:01.937Z,15.60
2018-12-27T22:14:32.377Z,18.17
2018-12-27T22:17:03.439Z,18.17
2018-12-27T22:19:34.067Z,15.30
2018-12-27T22:22:05.008Z,25.50
2018-12-27T22:24:36.352Z,18.20
2018-12-27T22:27:06.982Z,16.40
2018-12-27T22:29:37.601Z,16.43
2018-12-27T22:32:08.877Z,16.03
2018-12-27T22:34:40.201Z,18.77
2018-12-27T22:37:10.816Z,18.50
2018-12-27T22:39:41.460Z,18.00
2018-12-27T22:45:11.180Z,16.90
2018-12-27T22:47:41.859Z,18.83
2018-12-27T22:50:12.634Z,14.60
2018-12-27T22:52:42.993Z,15.07
2018-12-27T22:55:14.561Z,12.40
2018-12-27T22:57:45.033Z,14.97
2018-12-27T23:00:27.925Z,16.67
2018-12-27T23:02:59.617Z,15.80
2018-12-27T23:05:30.252Z,15.20
2018-12-27T23:08:00.510Z,27.80
2018-12-27T23:10:30.773Z,24.60
2018-12-27T23:13:01.335Z,21.33
2018-12-27T23:15:32.071Z,26.90
2018-12-27T23:18:03.258Z,29.73
2018-12-27T23:20:34.181Z,32.80
2018-12-27T23:23:04.987Z,23.77
2018-12-27T23:25:35.613Z,27.80
2018-12-27T23:28:05.896Z,26.33
2018-12-27T23:30:36.265Z,26.40
2018-12-27T23:33:06.793Z,24.50
2018-12-27T23:35:37.219Z,25.10
2018-12-27T23:38:08.190Z,22.97
2018-12-27T23:40:38.689Z,20.53
2018-12-27T23:43:09.539Z,17.93
2018-12-27T23:45:40.766Z,20.30
2018-12-27T23:48:11.295Z,19.00
2018-12-27T23:50:41.832Z,19.73
2018-12-27T23:53:12.138Z,33.17
2018-12-27T23:55:42.391Z,34.27
2018-12-27T23:58:12.692Z,34.37
